createdAt,value
2023-04-04T00:03:18.220Z,-1.61
2023-04-04T00:08:41.074Z,-1.62
2023-04-04T00:14:03.795Z,-1.63
2023-04-04T00:19:26.402Z,-1.60
2023-04-04T00:24:49.260Z,-1.54
2023-04-04T00:30:12.683Z,-1.43
2023-04-04T00:35:35.002Z,-1.39
2023-04-04T00:41:03.052Z,-1.29
2023-04-04T00:46:27.482Z,-1.18
2023-04-04T00:51:49.875Z,-1.09
2023-04-04T00:57:14.126Z,-1.05
2023-04-04T01:02:37.320Z,-1.02
2023-04-04T01:08:00.297Z,-0.99
2023-04-04T01:13:22.924Z,-0.86
2023-04-04T01:18:47.097Z,-0.87
2023-04-04T01:24:12.852Z,-0.92
2023-04-04T01:29:35.237Z,-0.87
2023-04-04T01:35:24.718Z,-0.90
2023-04-04T01:40:52.177Z,-0.82
2023-04-04T01:46:15.083Z,-0.71
2023-04-04T01:51:39.136Z,-0.75
2023-04-04T01:57:02.537Z,-0.75
2023-04-04T02:02:24.881Z,-0.79
2023-04-04T02:07:47.521Z,-0.81
2023-04-04T02:13:11.690Z,-0.78
2023-04-04T02:18:34.657Z,-0.79
2023-04-04T02:23:57.044Z,-0.80
2023-04-04T02:29:20.108Z,-0.79
2023-04-04T02:34:42.931Z,-0.78
2023-04-04T02:40:05.834Z,-0.79
2023-04-04T02:45:29.276Z,-0.79
2023-04-04T02:50:52.789Z,-0.78
2023-04-04T02:56:15.602Z,-0.77
2023-04-04T03:01:38.435Z,-0.77
2023-04-04T03:07:01.176Z,-0.76
2023-04-04T03:12:26.129Z,-0.71
2023-04-04T03:17:48.391Z,-0.70
2023-04-04T03:23:10.721Z,-0.72
2023-04-04T03:28:32.999Z,-0.76
2023-04-04T03:33:56.047Z,-0.80
2023-04-04T03:39:18.377Z,-0.84
2023-04-04T03:44:40.689Z,-0.87
2023-04-04T03:50:04.178Z,-0.89
2023-04-04T03:55:26.656Z,-0.94
2023-04-04T04:00:48.952Z,-1.00
2023-04-04T04:06:13.225Z,-1.03
2023-04-04T04:11:35.494Z,-1.00
2023-04-04T04:17:00.822Z,-0.98
2023-04-04T04:22:23.071Z,-0.97
2023-04-04T04:27:46.541Z,-0.94
2023-04-04T04:33:09.403Z,-0.90
2023-04-04T04:38:31.668Z,-0.85
2023-04-04T04:43:53.915Z,-0.93
2023-04-04T04:49:16.208Z,-1.01
2023-04-04T04:54:38.585Z,-1.01
2023-04-04T05:00:01.605Z,-0.94
2023-04-04T05:05:24.097Z,-0.90
2023-04-04T05:10:46.502Z,-0.87
2023-04-04T05:16:09.036Z,-0.84
2023-04-04T05:21:31.368Z,-0.81
2023-04-04T05:26:53.656Z,-0.74
2023-04-04T05:32:16.404Z,-0.63
2023-04-04T05:37:38.680Z,-0.57
2023-04-04T05:43:08.623Z,-0.54
2023-04-04T05:48:31.457Z,-0.52
2023-04-04T05:53:53.788Z,-0.50
2023-04-04T05:59:16.939Z,-0.52
2023-04-04T06:04:41.033Z,-0.51
2023-04-04T06:10:03.570Z,-0.64
2023-04-04T06:15:26.692Z,-0.78
2023-04-04T06:20:49.037Z,-0.75
2023-04-04T06:26:13.236Z,-0.69
2023-04-04T06:31:36.065Z,-0.68
2023-04-04T06:36:58.372Z,-0.53
2023-04-04T06:42:20.787Z,-0.45
2023-04-04T06:47:43.065Z,-0.47
2023-04-04T06:53:06.947Z,-0.31
2023-04-04T06:58:29.276Z,-0.16
2023-04-04T07:03:51.687Z,0.06
2023-04-04T07:09:25.940Z,-0.08
2023-04-04T07:14:38.627Z,0.08
2023-04-04T07:20:02.923Z,-0.03
2023-04-04T07:25:28.516Z,0.23
2023-04-04T07:30:50.786Z,0.47
2023-04-04T07:36:15.846Z,0.78
2023-04-04T07:41:38.350Z,1.05
2023-04-04T07:47:09.437Z,0.79
2023-04-04T07:52:24.522Z,0.93
2023-04-04T07:57:48.961Z,1.11
2023-04-04T08:03:15.418Z,0.81
2023-04-04T08:08:38.072Z,0.96
2023-04-04T08:14:00.692Z,1.07
2023-04-04T08:19:23.544Z,0.59
2023-04-04T08:24:46.856Z,1.13
2023-04-04T08:30:09.542Z,1.25
2023-04-04T08:35:32.552Z,1.65
2023-04-04T08:40:56.847Z,1.16
2023-04-04T08:46:21.120Z,1.19
2023-04-04T08:51:46.022Z,1.10
2023-04-04T08:57:08.635Z,1.78
2023-04-04T09:02:38.933Z,2.46
2023-04-04T09:08:04.200Z,2.72
2023-04-04T09:13:26.710Z,2.46
2023-04-04T09:18:49.585Z,2.20
2023-04-04T09:24:23.073Z,1.72
2023-04-04T09:29:47.499Z,1.65
2023-04-04T09:35:11.054Z,1.85
2023-04-04T09:40:36.690Z,2.14
2023-04-04T09:46:01.557Z,2.15
2023-04-04T09:51:26.120Z,2.22
2023-04-04T09:56:49.661Z,2.64
2023-04-04T10:02:16.778Z,2.32
2023-04-04T10:07:42.577Z,2.23
2023-04-04T10:13:05.148Z,2.14
2023-04-04T10:18:29.031Z,1.79
2023-04-04T10:23:53.397Z,1.85
2023-04-04T10:29:15.691Z,2.14
2023-04-04T10:34:51.913Z,2.46
2023-04-04T10:40:23.485Z,2.11
2023-04-04T10:45:47.008Z,2.08
2023-04-04T10:51:11.348Z,1.78
2023-04-04T10:56:34.958Z,1.81
2023-04-04T11:02:11.860Z,1.98
2023-04-04T11:07:40.708Z,2.84
2023-04-04T11:13:13.362Z,5.72
2023-04-04T11:18:37.822Z,6.90
2023-04-04T11:24:14.019Z,4.45
2023-04-04T11:29:53.820Z,2.62
2023-04-04T11:35:27.330Z,3.88
2023-04-04T11:41:09.061Z,5.26
2023-04-04T11:46:34.588Z,4.50
2023-04-04T11:51:59.208Z,3.53
2023-04-04T11:57:24.042Z,2.86
2023-04-04T12:02:47.880Z,2.90
2023-04-04T12:08:11.026Z,2.90
2023-04-04T12:13:35.966Z,3.19
2023-04-04T12:18:58.586Z,3.46
2023-04-04T12:24:21.598Z,3.99
2023-04-04T12:29:47.803Z,3.59
2023-04-04T12:35:16.168Z,3.74
2023-04-04T12:40:45.154Z,5.68
2023-04-04T12:46:14.300Z,7.25
2023-04-04T12:51:38.979Z,7.25
2023-04-04T12:57:04.366Z,5.15
2023-04-04T13:02:30.179Z,4.00
2023-04-04T13:07:54.757Z,3.87
2023-04-04T13:13:21.873Z,3.86
2023-04-04T13:18:49.408Z,3.90
2023-04-04T13:24:12.045Z,5.01
2023-04-04T13:29:34.368Z,6.38
2023-04-04T13:34:56.718Z,5.14
2023-04-04T13:40:20.080Z,4.76
2023-04-04T13:45:46.307Z,6.28
2023-04-04T13:51:08.844Z,7.25
2023-04-04T13:56:31.987Z,7.83
2023-04-04T14:01:55.098Z,5.85
2023-04-04T14:07:18.122Z,4.83
2023-04-04T14:12:41.146Z,4.88
2023-04-04T14:18:03.963Z,4.36
2023-04-04T14:23:26.758Z,4.35
2023-04-04T14:28:49.121Z,3.98
2023-04-04T14:34:14.629Z,4.27
2023-04-04T14:39:45.255Z,6.31
2023-04-04T14:45:08.056Z,6.00
2023-04-04T14:50:30.900Z,4.88
2023-04-04T14:55:53.873Z,4.72
2023-04-04T15:01:16.409Z,4.21
2023-04-04T15:06:39.676Z,4.03
2023-04-04T15:12:02.911Z,4.42
2023-04-04T15:17:25.830Z,4.40
2023-04-04T15:22:48.349Z,4.21
2023-04-04T15:28:10.643Z,4.24
2023-04-04T15:33:33.260Z,5.79
2023-04-04T15:38:56.136Z,5.59
2023-04-04T15:44:19.098Z,4.62
2023-04-04T15:49:41.509Z,4.01
2023-04-04T15:55:03.921Z,4.88
2023-04-04T16:06:01.369Z,5.11
2023-04-04T16:11:27.287Z,4.31
2023-04-04T16:16:49.541Z,3.88
2023-04-04T16:22:13.514Z,4.15
2023-04-04T16:27:37.314Z,4.04
2023-04-04T16:32:59.839Z,5.21
2023-04-04T16:38:22.210Z,5.90
2023-04-04T16:43:46.170Z,5.03
2023-04-04T16:49:09.026Z,3.86
2023-04-04T16:54:31.373Z,3.42
2023-04-04T16:59:53.804Z,3.40
2023-04-04T17:05:16.386Z,3.13
2023-04-04T17:10:43.164Z,2.90
2023-04-04T17:16:06.742Z,2.70
2023-04-04T17:21:29.014Z,2.50
2023-04-04T17:26:51.822Z,2.29
2023-04-04T17:32:20.387Z,2.13
2023-04-04T17:37:42.823Z,2.02
2023-04-04T17:43:05.168Z,1.95
2023-04-04T17:48:29.655Z,1.92
2023-04-04T17:53:52.273Z,1.90
2023-04-04T17:59:16.213Z,1.81
2023-04-04T18:04:38.862Z,1.61
2023-04-04T18:10:01.400Z,1.42
2023-04-04T18:15:24.717Z,1.28
2023-04-04T18:20:49.858Z,1.20
2023-04-04T18:26:13.281Z,0.99
2023-04-04T18:31:35.687Z,0.86
2023-04-04T18:36:57.970Z,0.86
2023-04-04T18:42:21.199Z,0.89
2023-04-04T18:47:45.328Z,1.00
2023-04-04T18:53:08.633Z,0.97
2023-04-04T18:58:32.334Z,0.87
2023-04-04T19:04:01.614Z,0.57
2023-04-04T19:09:26.223Z,0.27
2023-04-04T19:14:48.514Z,0.13
2023-04-04T19:20:10.910Z,-0.05
2023-04-04T19:25:33.413Z,-0.18
2023-04-04T19:31:02.282Z,-0.28
2023-04-04T19:36:28.121Z,-0.46
2023-04-04T19:41:54.404Z,-0.68
2023-04-04T19:47:17.248Z,-0.81
2023-04-04T19:52:41.683Z,-0.98
2023-04-04T19:58:04.901Z,-1.16
2023-04-04T20:03:46.714Z,-1.25
2023-04-04T20:09:21.905Z,-1.33
2023-04-04T20:14:44.830Z,-1.53
2023-04-04T20:20:07.082Z,-1.78
2023-04-04T20:25:45.582Z,-2.10
2023-04-04T20:31:14.219Z,-2.33
2023-04-04T20:36:43.187Z,-2.47
2023-04-04T20:42:05.476Z,-2.54
2023-04-04T20:47:52.291Z,-2.65
2023-04-04T20:53:16.547Z,-2.72
2023-04-04T20:58:42.164Z,-2.83
2023-04-04T21:04:04.429Z,-2.99
2023-04-04T21:09:26.762Z,-3.09
2023-04-04T21:14:55.012Z,-3.22
2023-04-04T21:20:22.401Z,-3.39
2023-04-04T21:25:53.932Z,-3.48
2023-04-04T21:31:24.301Z,-3.53
2023-04-04T21:36:48.214Z,-3.64
2023-04-04T21:42:12.730Z,-3.71
2023-04-04T21:47:35.085Z,-3.55
2023-04-04T21:52:57.410Z,-3.46
2023-04-04T21:58:19.772Z,-3.48
2023-04-04T22:03:43.945Z,-3.57
2023-04-04T22:09:07.136Z,-3.63
2023-04-04T22:14:30.444Z,-3.61
2023-04-04T22:20:03.328Z,-3.65
2023-04-04T22:25:26.663Z,-3.79
2023-04-04T22:30:50.745Z,-3.92
2023-04-04T22:36:15.411Z,-3.88
2023-04-04T22:41:42.132Z,-4.00
2023-04-04T22:47:06.026Z,-4.07
2023-04-04T22:52:31.000Z,-4.07
2023-04-04T22:57:53.466Z,-4.11
2023-04-04T23:03:17.031Z,-4.15
2023-04-04T23:08:39.272Z,-4.44
2023-04-04T23:14:01.524Z,-4.56
2023-04-04T23:19:23.987Z,-4.58
2023-04-04T23:24:46.642Z,-4.58
2023-04-04T23:30:10.137Z,-4.48
2023-04-04T23:35:32.503Z,-4.39
2023-04-04T23:40:54.824Z,-4.38
2023-04-04T23:46:18.470Z,-4.36
2023-04-04T23:51:42.651Z,-4.35
2023-04-04T23:57:04.931Z,-4.37
